Race At The Ranch 13

Age Group Results

April 06, 2013


Results By Split Second Productions

1 Mile

Female 2 and under

Place Name City Bib No Age Overall Time Back Chip Time Gun Time Pace
1 Caroline Pollom 1141 1 45   8:38.00 9:01.00 8:38/M
 

Female 3 to 5

Place Name City Bib No Age Overall Time Back Chip Time Gun Time Pace
1 Meredith Garrett 1193 4 47   8:39.00 8:58.00 8:39/M
2 Sydney Nickleberry 1065 5 51 0:07.00 8:46.00 9:05.00 8:46/M
3 Kennedi Diamond 1012 5 71 1:33.00 10:12.00 10:31.00 10:12/M
4 Avery Kingdon 1009 4 76 1:35.00 10:14.00 10:33.00 10:14/M
5 Grayson Bartek 1019 4 79 1:56.00 10:35.00 10:57.00 10:35/M
6 Jocelyn Fellers 444 4 85 2:42.00 11:21.00 11:47.00 11:21/M
 

Female Age 6

Place Name City Bib No Age Overall Time Back Chip Time Gun Time Pace
1 Mary Moore 2914 6 13   6:57.00 7:14.00 6:57/M
2 Audrey Pantano 1060 6 28 1:14.00 8:11.00 8:26.00 8:11/M
3 Cadence Phillips 1157 6 32 1:18.00 8:15.00 8:30.00 8:15/M
4 Isabella Benfield 2913 6 36 1:22.00 8:19.00 8:36.00 8:19/M
5 Kate Pollom 1140 6 39 1:27.00 8:24.00 8:47.00 8:24/M
6 Kenzie Vanhorn San Antonio TX 2901 6 40 1:28.00 8:25.00 8:38.00 8:25/M
7 Madison Phillips 1155 6 50 1:48.00 8:45.00 9:00.00 8:45/M
8 Taylor Phillips 1156 6 57 2:10.00 9:07.00 9:21.00 9:07/M
 

Female Age 7

Place Name City Bib No Age Overall Time Back Chip Time Gun Time Pace
1 Amelia Pimienta 440 7 15   7:01.00 7:14.00 7:01/M
2 Abygail Vlasi 1134 7 16 0:02.00 7:03.00 7:16.00 7:03/M
3 Brelyn Burk 1054 7 53 1:54.00 8:55.00 9:17.00 8:55/M
4 Allison White 479 7 82 4:14.00 11:15.00 11:28.00 11:15/M
5 Karlyn Jackson 468 7 84 4:18.00 11:19.00 11:40.00 11:19/M
 

Female Age 8

Place Name City Bib No Age Overall Time Back Chip Time Gun Time Pace
1 Myla Castillo 1180 8 4   6:23.00 6:38.00 6:23/M
2 Alexa Morales 434 8 48 2:18.00 8:41.00 8:55.00 8:41/M
3 Ava Smith 2886 8 73 3:50.00 10:13.00 10:27.00 10:13/M
4 Madelyn Bartek 1018 8 78 4:12.00 10:35.00 10:55.00 10:35/M
 

Female Age 9

Place Name City Bib No Age Overall Time Back Chip Time Gun Time Pace
1 Brooklyn Burk 1057 9 27   8:10.00 8:33.00 8:10/M
2 Caitlin Carden San Antonio TX 2900 9 30 0:03.00 8:13.00 8:26.00 8:13/M
3 Addison Garcia 1124 9 63 1:31.00 9:41.00 10:23.00 9:41/M
4 Kamryn Thresher 490 9 80 2:46.00 10:56.00 11:10.00 10:56/M
 

Female Age 10

Place Name City Bib No Age Overall Time Back Chip Time Gun Time Pace
1 Anna Hepp 1043 10 10   6:47.00 7:06.00 6:47/M
2 Emily Aabbad 1047 10 38 1:36.00 8:23.00 8:42.00 8:23/M
3 Jessica Sanco 1028 10 59 2:26.00 9:13.00 9:31.00 9:13/M
 

Female 12 and over

Place Name City Bib No Age Overall Time Back Chip Time Gun Time Pace
1 Laura Castillo 1182 34 24   7:38.00 7:54.00 7:38/M
2 Kory Phipps 1164 35 33 0:37.00 8:15.00 8:36.00 8:15/M
3 Melinda Pantano 1059 31 35 0:39.00 8:17.00 8:32.00 8:17/M
4 Joanna Collins 1126 39 37 0:45.00 8:23.00 8:38.00 8:23/M
5 Shea Pollom 1144 38 46 1:00.00 8:38.00 9:02.00 8:38/M
6 Tana Phillips 1153 39 49 1:07.00 8:45.00 9:00.00 8:45/M
7 Jolene Burk 1053 49 54 1:17.00 8:55.00 9:17.00 8:55/M
8 Lindsay Krupczak 1145 37 66 2:14.00 9:52.00 10:12.00 9:52/M
9 Trinity Juneau 2867 12 67 2:15.00 9:53.00 10:11.00 9:53/M
10 Macy Weldon 2891 12 68 2:16.00 9:54.00 10:13.00 9:54/M
11 Claire Najarro 2879 34 69 2:32.00 10:10.00 10:27.00 10:10/M
12 Ana Morales 435 36 74 2:35.00 10:13.00 10:27.00 10:13/M
13 Gretchen White 478 41 86 3:45.00 11:23.00 11:41.00 11:23/M
 

Male 3 to 5

Place Name City Bib No Age Overall Time Back Chip Time Gun Time Pace
1 Travis Collins 1128 5 31   8:13.00 8:38:38.00 8:13/M
2 Diego Mendoza 470 4 34 0:04.00 8:17.00 8:31.00 8:17/M
3 Alex Kingdon 1007 5 44 0:17.00 8:30.00 8:42.00 8:30/M
4 Cade Diamond 1014 3 75 2:00.00 10:13.00 10:32.00 10:13/M
5 Gabriel Pinzon 1070 5 81 2:56.00 11:09.00 11:32.00 11:09/M
 

Male Age 6

Place Name City Bib No Age Overall Time Back Chip Time Gun Time Pace
1 Liam Lambert 1169 6 6   6:41.00 6:55.00 6:41/M
2 Diego Morales 437 6 22 0:45.00 7:26.00 7:39.00 7:26/M
3 Casen Jacobson 408 6 52 2:08.00 8:49.00 9:29.00 8:49/M
4 Caden Jacobson 409 6 55 2:22.00 9:03.00 9:43.00 9:03/M
5 Evan Wilson 413 6 60 2:34.00 9:15.00 9:37.00 9:15/M
6 Jake Phipps 1165 6 62 2:54.00 9:35.00 9:56.00 9:35/M
 

Male Age 7

Place Name City Bib No Age Overall Time Back Chip Time Gun Time Pace
1 Lucian Fellers 443 7 17   7:16.00 7:31.00 7:16/M
2 Riley Collins 1127 7 26 0:26.00 7:42.00 7:55.00 7:42/M
3 Andrew Kingdon 1010 7 41 1:12.00 8:28.00 8:42.00 8:28/M
 

Male Age 8

Place Name City Bib No Age Overall Time Back Chip Time Gun Time Pace
1 Emilio Gama 485 8 3   6:22.00 6:35.00 6:22/M
2 Jack Moore 2912 8 5 0:09.00 6:31.00 6:47.00 6:31/M
3 Justin Cantu 1041 8 7 0:21.00 6:43.00 6:57.00 6:43/M
4 Carson Diamond 1015 8 8 0:22.00 6:44.00 6:44.00 6:44/M
5 Matthew Cravens 404 8 11 0:25.00 6:47.00 7:19.00 6:47/M
6 Douglas Aabbad 1048 8 12 0:33.00 6:55.00 7:11.00 6:55/M
7 Cooper Phipps 1167 8 29 1:50.00 8:12.00 8:33.00 8:12/M
 

Male Age 9

Place Name City Bib No Age Overall Time Back Chip Time Gun Time Pace
1 Jack Turner 439 9 20   7:24.00 7:40.00 7:24/M
2 Ryan Garcia 1122 9 42 1:04.00 8:28.00 9:11.00 8:28/M
 

Male Age 10

Place Name City Bib No Age Overall Time Back Chip Time Gun Time Pace
1 Dylan McGinnis 1036 10 1   6:09.00 6:25.00 6:09/M
 

Male Age 11

Place Name City Bib No Age Overall Time Back Chip Time Gun Time Pace
1 Samuel Juneau 2866 11 2   6:17.00 6:35.00 6:17/M
2 Donovan Castillo 1181 11 23 1:19.00 7:36.00 7:51.00 7:36/M
 

Male 12 and over

Place Name City Bib No Age Overall Time Back Chip Time Gun Time Pace
1 Mark Cravens 403 12 9   6:46.00 7:00.00 6:46/M
2 Val Gonzales 1072 66 14 0:12.00 6:58.00 7:54.00 6:58/M
3 Omar Gama 486 13 18 0:35.00 7:21.00 7:35.00 7:21/M
4 Angel Morales 436 38 19 0:38.00 7:24.00 7:39.00 7:24/M
5 Robert Turner 438 50 21 0:38.00 7:24.00 7:40.00 7:24/M
6 Duane Collins 1125 46 25 0:55.00 7:41.00 7:56.00 7:41/M
7 Patrick Hall 1061 28 43 1:43.00 8:29.00 8:45.00 8:29/M
8 Joseph Charles Jackson 2864 30 56 2:21.00 9:07.00 9:20.00 9:07/M
9 Marshall Tidwell 2888 50 58 2:24.00 9:10.00 9:35.00 9:10/M
10 Bradley Wilson 412 37 61 2:31.00 9:17.00 9:39.00 9:17/M
11 Maria Coronel 1045 40 64 2:56.00 9:42.00 9:57.00 9:42/M
12 Eric Phipps 1166 50 65 2:58.00 9:44.00 10:05.00 9:44/M
13 Roberto Hernandez 2861 44 70 3:24.00 10:10.00 10:27.00 10:10/M
14 Jason Diamond 1013 36 72 3:26.00 10:12.00 10:32.00 10:12/M
15 Will Kingdon 1008 44 77 3:29.00 10:15.00 10:33.00 10:15/M
16 Matt Jackson 467 41 83 4:33.00 11:19.00 11:40.00 11:19/M